首页
METAR-TAF:

METAR-TAF

机场 :

渥太华麦克唐纳-卡蒂埃国际机场

渥太華, 安大略省, 加拿大

纬度: 45-19N, 经度: 075-40W, 海拔: 116米

当前天气观测

该预报发布于40分钟前的11:00 UTC
风速5节,风向西转西南
温度 -1°C
湿度 93%
气压 1013 hPa
能見度: 16.1公里
阴天层高于1800英尺

METAR: CYOW 171100Z 24005KT 10SM OVC018 M01/M02 A2991 RMK SC8 SLP136

时间: 06:40 (11:40 UTC)

预报

该预报发布于3小时和2分钟前的08:38 UTC
预报有效从17日的 09点(UTC)到 18日的 06点(UTC)
风速5节,风向西转西南
能見度: 8.0公里
阴天层高于2000英尺
小雪
短暂存在
从 17日的 09点(UTC)到 17日的 15点(UTC)
能見度: 10公里
多云层高于2500英尺
阴天层高于5000英尺
几率 30%
从 17日的 09点(UTC)到 17日的 14点(UTC)
阴天层高于800英尺
从 17日的 1500点(UTC)
风速10节,风向西,有时为20节阵风
能見度: 10公里
多云层高于3000英尺
多云层高于6000英尺
短暂存在
从 17日的 15点(UTC)到 17日的 21点(UTC)
能見度: 10公里
小阵雪
从 17日的 2100点(UTC)
风速12节,风向西转西北
能見度: 10公里
散云层高于3000英尺
从 18日的 0400点(UTC)
风速6节,风向西转西北
能見度: 10公里
天空无云

TAF: CYOW 170838Z 1709/1806 25005KT 5SM -SN OVC020 TEMPO 1709/1715 P6SM NSW BKN025 OVC050 PROB30 1709/1714 OVC008 FM171500 27010G20KT P6SM BKN030 BKN060 TEMPO 1715/1721 P6SM -SHSN FM172100 30012KT P6SM SCT030 FM180400 30006KT P6SM SKC RMK NXT FCST BY 171200Z

超过4000个机场的气象观测和天气预报(METAR&TAF报告)。

可查询的气象台以黄色和红色小点在地图上表示。

将鼠标移到小点上方,可查看气象台名称。

然后点击查看天气观测和预报。

如需切换地图:点击带黑十字的绿色按钮放大地图;点击带横线的绿色按钮缩小地图;或者点击绿色箭头查看邻近地区的地图。


METAR-TAF: